Time;durP1;ratioP1;P1;durP2;ratioP2;P2;SDS_P1;SDS_P2;PMS_P1;PMS_P2;Temp;Humidity;BMP_temperature;BMP_pressure;BME280_temperature;BME280_humidity;BME280_pressure;Samples;Min_cycle;Max_cycle;Signal;HPM_P1;HPM_P2
2023/05/31 00:01:16;;;;;;;12.27;5.18;;;16.80;99.90;;;;;;4920623;29;20186;-70
2023/05/31 00:03:43;;;;;;;8.30;5.10;;;16.80;99.90;;;;;;4915872;29;20027;-73
2023/05/31 00:06:10;;;;;;;9.77;5.40;;;16.70;99.90;;;;;;4915603;29;20032;-72
2023/05/31 00:08:36;;;;;;;9.15;5.20;;;16.70;99.90;;;;;;4915388;29;20036;-70
2023/05/31 00:11:02;;;;;;;9.13;5.72;;;16.70;99.90;;;;;;4915713;29;20044;-73
2023/05/31 00:13:28;;;;;;;10.73;5.07;;;16.70;99.90;;;;;;4915769;29;20027;-72
2023/05/31 00:15:54;;;;;;;8.57;5.18;;;16.70;99.90;;;;;;4915501;29;20036;-73
2023/05/31 00:18:19;;;;;;;10.27;5.53;;;16.70;99.90;;;;;;4915598;29;20468;-73
2023/05/31 00:20:45;;;;;;;8.57;5.38;;;16.60;99.90;;;;;;4915591;29;20088;-72
2023/05/31 00:23:11;;;;;;;9.32;5.15;;;16.60;99.90;;;;;;4915335;29;20035;-73
2023/05/31 00:25:37;;;;;;;10.43;5.25;;;16.60;99.90;;;;;;4915761;29;20028;-71
2023/05/31 00:28:03;;;;;;;8.80;5.38;;;16.60;99.90;;;;;;4915579;29;20361;-72
2023/05/31 00:30:28;;;;;;;8.07;4.63;;;16.60;99.90;;;;;;4898639;29;20403;-72
2023/05/31 00:32:54;;;;;;;10.93;5.15;;;16.60;99.90;;;;;;4915469;29;20024;-72
2023/05/31 00:35:20;;;;;;;8.75;5.55;;;16.60;99.90;;;;;;4915412;29;20032;-72
2023/05/31 00:37:46;;;;;;;8.85;5.72;;;16.60;99.90;;;;;;4897250;29;20131;-72
2023/05/31 00:40:12;;;;;;;9.25;4.75;;;16.60;99.90;;;;;;4898093;29;20369;-71
2023/05/31 00:42:38;;;;;;;9.55;5.05;;;16.60;99.90;;;;;;4897624;29;20083;-72
2023/05/31 00:45:06;;;;;;;9.85;5.53;;;16.60;99.90;;;;;;4918193;29;20032;-75
2023/05/31 00:47:35;;;;;;;9.13;5.22;;;16.50;99.90;;;;;;4919424;29;20043;-73
2023/05/31 00:50:00;;;;;;;8.40;4.63;;;16.60;99.90;;;;;;4901609;29;20036;-72
2023/05/31 00:52:28;;;;;;;8.55;4.82;;;16.50;99.90;;;;;;4918909;29;20024;-72
2023/05/31 00:54:55;;;;;;;7.50;4.68;;;16.50;99.90;;;;;;4918770;29;20407;-71
2023/05/31 00:57:20;;;;;;;9.07;4.80;;;16.40;99.90;;;;;;4919055;29;20016;-72
2023/05/31 00:59:46;;;;;;;9.18;4.70;;;16.40;99.90;;;;;;4918394;29;20476;-72
2023/05/31 01:02:14;;;;;;;9.38;4.75;;;16.50;99.90;;;;;;4918831;29;20384;-73
2023/05/31 01:04:40;;;;;;;8.75;4.88;;;16.50;99.90;;;;;;4918544;29;20039;-72
2023/05/31 01:07:08;;;;;;;10.65;5.57;;;16.40;99.90;;;;;;4918818;29;20100;-73
2023/05/31 01:09:35;;;;;;;9.82;5.05;;;16.40;99.90;;;;;;4901581;29;20047;-72
2023/05/31 01:12:16;;;;;;;8.93;5.30;;;16.40;99.90;;;;;;4918507;29;20028;-73
2023/05/31 01:15:01;;;;;;;8.85;5.28;;;16.30;99.90;;;;;;4901552;29;20060;-73
2023/05/31 01:17:39;;;;;;;8.95;4.50;;;16.30;99.90;;;;;;4918552;29;20036;-72
2023/05/31 01:20:11;;;;;;;10.93;4.65;;;16.30;99.90;;;;;;4901422;29;20047;-73
2023/05/31 01:23:11;;;;;;;15.57;5.50;;;16.30;99.90;;;;;;4901743;29;20047;-72
2023/05/31 01:26:01;;;;;;;10.00;5.00;;;16.30;99.90;;;;;;4918515;29;20508;-73
2023/05/31 01:28:31;;;;;;;8.70;5.35;;;16.30;99.90;;;;;;4918385;29;20079;-70
2023/05/31 01:31:07;;;;;;;11.20;5.90;;;16.30;99.90;;;;;;4918021;29;20099;-71
2023/05/31 01:33:34;;;;;;;9.43;5.20;;;16.30;99.90;;;;;;4901223;29;20536;-73
2023/05/31 01:36:00;;;;;;;8.77;5.13;;;16.30;99.90;;;;;;4918531;29;20024;-73
2023/05/31 01:38:26;;;;;;;10.25;5.35;;;16.30;99.90;;;;;;4901016;29;20048;-73
2023/05/31 01:40:56;;;;;;;10.05;5.47;;;16.30;99.90;;;;;;4899906;29;20047;-73
2023/05/31 01:43:25;;;;;;;9.40;5.32;;;16.30;99.90;;;;;;4917657;29;20032;-73
2023/05/31 01:45:51;;;;;;;8.57;4.90;;;16.30;99.90;;;;;;4901249;29;20063;-74
2023/05/31 01:48:17;;;;;;;10.63;5.20;;;16.30;99.90;;;;;;4917692;29;20119;-71
2023/05/31 01:50:44;;;;;;;16.33;6.78;;;16.30;99.90;;;;;;4901318;29;20465;-71
2023/05/31 01:53:10;;;;;;;9.50;5.30;;;16.40;99.90;;;;;;4917728;29;20032;-71
2023/05/31 01:55:36;;;;;;;8.45;5.05;;;16.40;99.90;;;;;;4917709;29;20428;-73
2023/05/31 01:58:04;;;;;;;10.25;5.07;;;16.40;99.90;;;;;;4900640;29;20029;-71
2023/05/31 02:00:31;;;;;;;9.60;4.97;;;16.30;99.90;;;;;;4907203;29;20468;-72
2023/05/31 02:02:58;;;;;;;12.57;5.50;;;16.40;99.90;;;;;;4900491;29;20040;-72
2023/05/31 02:05:26;;;;;;;8.85;4.85;;;16.40;99.90;;;;;;4900618;29;20115;-73
2023/05/31 02:07:54;;;;;;;10.02;5.47;;;16.30;99.90;;;;;;4901024;29;20039;-71
2023/05/31 02:10:19;;;;;;;12.65;5.32;;;16.30;99.90;;;;;;4917182;29;20501;-73
2023/05/31 02:12:45;;;;;;;8.98;5.03;;;16.30;99.90;;;;;;4900547;29;20123;-71
2023/05/31 02:15:12;;;;;;;9.77;5.95;;;16.30;99.90;;;;;;4900406;29;20039;-72
2023/05/31 02:17:42;;;;;;;7.15;4.60;;;16.20;99.90;;;;;;4900434;29;20444;-73
2023/05/31 02:20:12;;;;;;;11.38;5.82;;;16.30;99.90;;;;;;4900449;29;20115;-72
2023/05/31 02:22:40;;;;;;;9.98;5.40;;;16.30;99.90;;;;;;4917650;29;20068;-73
2023/05/31 02:25:07;;;;;;;10.80;5.57;;;16.30;99.90;;;;;;4899388;29;20495;-74
2023/05/31 02:27:33;;;;;;;11.45;5.43;;;16.30;99.90;;;;;;4917123;29;20051;-71
2023/05/31 02:29:59;;;;;;;15.05;6.10;;;16.30;99.90;;;;;;4917279;29;20488;-73
2023/05/31 02:32:25;;;;;;;8.75;5.57;;;16.30;99.90;;;;;;4917121;29;20455;-71
2023/05/31 02:34:51;;;;;;;9.20;5.50;;;16.30;99.90;;;;;;4917178;29;20020;-72
2023/05/31 02:37:19;;;;;;;11.27;5.35;;;16.30;99.90;;;;;;4899671;29;20059;-73
2023/05/31 02:39:45;;;;;;;9.63;5.60;;;16.30;99.90;;;;;;4916743;29;20028;-73
2023/05/31 02:42:11;;;;;;;11.90;6.05;;;16.30;99.90;;;;;;4900068;29;20032;-71
2023/05/31 02:44:37;;;;;;;12.02;6.03;;;16.40;99.90;;;;;;4899536;29;20701;-70
2023/05/31 02:47:05;;;;;;;12.73;6.80;;;16.30;99.90;;;;;;4899828;29;20103;-73
2023/05/31 02:49:31;;;;;;;12.73;6.70;;;16.30;99.90;;;;;;4899477;29;20044;-72
2023/05/31 02:51:57;;;;;;;15.32;6.78;;;16.20;99.90;;;;;;4884030;29;20032;-72
2023/05/31 02:54:29;;;;;;;11.15;5.85;;;16.20;99.90;;;;;;4916435;29;20445;-74
2023/05/31 02:56:56;;;;;;;14.30;7.18;;;16.30;99.90;;;;;;4899977;29;20024;-70
2023/05/31 02:59:23;;;;;;;16.80;6.82;;;16.30;99.90;;;;;;4901514;29;20480;-74
2023/05/31 03:01:52;;;;;;;12.27;7.32;;;16.30;99.90;;;;;;4916712;29;20033;-73
2023/05/31 03:04:37;;;;;;;14.90;7.07;;;16.30;99.90;;;;;;4899779;29;20488;-72
2023/05/31 03:07:04;;;;;;;9.00;5.95;;;16.20;99.90;;;;;;4898721;29;20455;-74
2023/05/31 03:09:30;;;;;;;11.85;6.50;;;16.20;99.90;;;;;;4899505;29;20039;-71
2023/05/31 03:11:56;;;;;;;12.82;6.50;;;16.30;99.90;;;;;;4900267;29;20024;-73
2023/05/31 03:14:23;;;;;;;11.20;7.00;;;16.30;99.90;;;;;;4899457;29;20024;-71
2023/05/31 03:16:53;;;;;;;11.98;6.80;;;16.20;99.90;;;;;;4899335;29;20028;-74
2023/05/31 03:19:19;;;;;;;12.88;7.38;;;16.20;99.90;;;;;;4899520;29;20038;-73
2023/05/31 03:21:48;;;;;;;13.75;7.40;;;16.20;99.90;;;;;;4899284;29;20024;-72
2023/05/31 03:24:14;;;;;;;13.48;6.70;;;16.10;99.90;;;;;;4909799;29;20035;-73
2023/05/31 03:26:41;;;;;;;12.20;6.57;;;16.10;99.90;;;;;;4906600;29;20062;-74
2023/05/31 03:29:07;;;;;;;12.18;7.07;;;16.10;99.90;;;;;;4883375;29;20500;-70
2023/05/31 03:31:34;;;;;;;16.23;6.90;;;16.10;99.90;;;;;;4899356;29;20044;-74
2023/05/31 03:34:00;;;;;;;22.42;7.40;;;16.20;99.90;;;;;;4901988;29;20357;-74
2023/05/31 03:36:26;;;;;;;16.98;7.10;;;16.10;99.90;;;;;;4899006;29;20079;-74
2023/05/31 03:38:52;;;;;;;15.63;6.88;;;16.10;99.90;;;;;;4898745;29;20052;-73
2023/05/31 03:41:18;;;;;;;12.35;6.75;;;16.10;99.90;;;;;;4899097;29;20031;-73
2023/05/31 03:43:44;;;;;;;13.27;6.93;;;16.10;99.90;;;;;;4899423;29;20058;-71
2023/05/31 03:46:11;;;;;;;12.60;6.72;;;16.20;99.90;;;;;;4899297;29;20076;-73
2023/05/31 03:48:37;;;;;;;11.50;6.95;;;16.20;99.90;;;;;;4898792;29;20044;-73
2023/05/31 03:51:03;;;;;;;12.60;6.72;;;16.10;99.90;;;;;;4898720;29;20059;-73
2023/05/31 03:53:29;;;;;;;11.77;6.88;;;16.10;99.90;;;;;;4899601;29;20028;-73
2023/05/31 03:55:56;;;;;;;14.63;6.82;;;16.10;99.90;;;;;;4898424;29;20032;-72
2023/05/31 03:58:22;;;;;;;12.13;6.72;;;16.20;99.90;;;;;;4898972;29;20540;-74
2023/05/31 04:00:48;;;;;;;16.35;7.38;;;16.20;99.90;;;;;;4899123;29;20135;-73
2023/05/31 04:03:14;;;;;;;13.43;7.22;;;16.10;99.90;;;;;;4898801;29;20020;-71
2023/05/31 04:05:40;;;;;;;14.48;8.05;;;16.20;99.90;;;;;;4899347;29;20024;-73
2023/05/31 04:08:07;;;;;;;13.00;7.70;;;16.20;99.90;;;;;;4900775;29;20368;-72
2023/05/31 04:10:34;;;;;;;14.38;7.30;;;16.20;99.90;;;;;;4907643;29;20043;-70
2023/05/31 04:12:59;;;;;;;13.88;7.50;;;16.20;99.90;;;;;;4898641;29;20503;-73
2023/05/31 04:15:26;;;;;;;13.77;7.38;;;16.30;99.90;;;;;;4898985;29;20040;-71
2023/05/31 04:17:56;;;;;;;15.18;7.95;;;16.30;99.90;;;;;;4888174;29;20111;-72
2023/05/31 04:20:23;;;;;;;18.58;7.97;;;16.40;99.90;;;;;;4901825;29;20164;-74
2023/05/31 04:22:53;;;;;;;13.52;7.38;;;16.40;99.90;;;;;;4903381;29;20418;-73
2023/05/31 04:25:19;;;;;;;16.02;7.68;;;16.40;99.90;;;;;;4918818;29;20031;-71
2023/05/31 04:27:46;;;;;;;13.57;7.47;;;16.40;99.90;;;;;;4919459;29;20070;-71
2023/05/31 04:30:12;;;;;;;14.50;7.53;;;16.40;99.90;;;;;;4890158;29;20036;-73
2023/05/31 04:32:40;;;;;;;13.57;7.32;;;16.40;99.90;;;;;;4901404;29;20028;-72
2023/05/31 04:35:08;;;;;;;19.92;7.93;;;16.40;99.90;;;;;;4919177;29;20028;-73
2023/05/31 04:37:39;;;;;;;13.65;7.57;;;16.40;99.90;;;;;;4905884;29;20051;-73
2023/05/31 04:40:09;;;;;;;14.30;7.15;;;16.50;99.90;;;;;;4909440;29;20046;-73
2023/05/31 04:42:36;;;;;;;11.00;6.85;;;16.50;99.90;;;;;;4902054;29;20541;-72
2023/05/31 04:45:04;;;;;;;14.68;7.40;;;16.50;99.90;;;;;;4910433;29;20032;-74
2023/05/31 04:47:36;;;;;;;12.02;7.43;;;16.60;99.90;;;;;;4902009;29;20024;-72
2023/05/31 04:50:03;;;;;;;11.68;6.97;;;16.60;99.90;;;;;;4901802;29;20039;-75
2023/05/31 04:52:31;;;;;;;13.32;5.93;;;16.60;99.90;;;;;;4901827;29;20084;-75
2023/05/31 04:54:58;;;;;;;11.52;6.53;;;16.70;99.90;;;;;;4902739;29;20120;-72
2023/05/31 04:57:26;;;;;;;11.23;6.93;;;16.70;99.90;;;;;;4902164;29;20032;-75
2023/05/31 04:59:53;;;;;;;11.43;6.43;;;16.70;99.90;;;;;;4901672;29;20036;-72
2023/05/31 05:02:20;;;;;;;13.77;6.78;;;16.70;99.90;;;;;;4890861;29;20392;-72
2023/05/31 05:04:47;;;;;;;13.75;7.50;;;16.70;99.90;;;;;;4907643;29;20032;-72
2023/05/31 05:07:17;;;;;;;9.77;6.25;;;16.70;99.90;;;;;;4907672;29;20039;-72
2023/05/31 05:09:43;;;;;;;10.43;5.88;;;16.80;99.90;;;;;;4917431;29;20099;-74
2023/05/31 05:12:10;;;;;;;12.40;6.28;;;16.80;99.90;;;;;;4896355;29;20472;-72
2023/05/31 05:14:40;;;;;;;9.77;5.60;;;16.90;99.90;;;;;;4901096;29;20421;-73
2023/05/31 05:17:06;;;;;;;12.10;6.40;;;16.80;99.90;;;;;;4905694;29;20084;-74
2023/05/31 05:19:33;;;;;;;12.43;6.22;;;16.90;99.90;;;;;;4902707;29;20028;-73
2023/05/31 05:21:59;;;;;;;11.93;6.10;;;16.90;99.90;;;;;;4903756;29;20035;-72
2023/05/31 05:24:26;;;;;;;9.63;5.50;;;16.90;99.90;;;;;;4899753;29;20039;-72
2023/05/31 05:26:53;;;;;;;10.57;6.13;;;17.00;99.90;;;;;;4896893;29;20024;-73
2023/05/31 05:29:18;;;;;;;9.02;5.72;;;17.00;99.90;;;;;;4910525;29;20040;-73
2023/05/31 05:31:47;;;;;;;10.85;6.10;;;17.00;99.90;;;;;;4900297;29;20032;-72
2023/05/31 05:34:13;;;;;;;8.90;5.47;;;17.00;99.90;;;;;;4898794;29;20123;-73
2023/05/31 05:36:40;;;;;;;8.93;5.38;;;17.00;99.90;;;;;;4881267;29;20116;-73
2023/05/31 05:39:07;;;;;;;8.82;5.28;;;17.00;99.90;;;;;;4905232;29;20416;-72
2023/05/31 05:41:33;;;;;;;14.40;8.32;;;17.10;99.90;;;;;;4899157;29;20068;-72
2023/05/31 05:44:00;;;;;;;11.55;5.70;;;17.20;99.90;;;;;;4896154;29;20028;-73
2023/05/31 05:46:27;;;;;;;9.80;5.88;;;17.30;99.90;;;;;;4895238;29;20042;-75
2023/05/31 05:48:53;;;;;;;10.07;6.35;;;17.30;99.90;;;;;;4917941;29;20508;-76
2023/05/31 05:51:22;;;;;;;11.68;5.90;;;17.40;99.90;;;;;;4900703;29;20111;-72
2023/05/31 05:53:48;;;;;;;8.27;5.20;;;17.50;99.90;;;;;;4900863;29;20035;-72
2023/05/31 05:56:17;;;;;;;11.27;5.63;;;17.50;99.90;;;;;;4900449;29;20396;-73
2023/05/31 05:58:53;;;;;;;9.93;5.65;;;17.50;99.90;;;;;;4900879;29;20087;-71
2023/05/31 06:01:37;;;;;;;9.95;5.38;;;17.40;99.90;;;;;;4917826;29;20064;-75
2023/05/31 06:04:06;;;;;;;9.63;4.97;;;17.40;99.90;;;;;;4900980;29;20036;-76
2023/05/31 06:06:32;;;;;;;10.48;5.45;;;17.60;99.90;;;;;;4900368;29;20034;-77
2023/05/31 06:09:00;;;;;;;8.63;5.45;;;17.70;99.90;;;;;;4900617;29;20479;-72
2023/05/31 06:11:25;;;;;;;8.82;4.78;;;17.70;99.90;;;;;;4899451;29;20088;-76
2023/05/31 06:13:56;;;;;;;11.70;5.07;;;17.80;99.90;;;;;;4900444;29;20396;-73
2023/05/31 06:16:23;;;;;;;9.23;5.05;;;17.90;99.90;;;;;;4915999;29;20491;-72
2023/05/31 06:18:49;;;;;;;11.18;5.32;;;18.00;99.90;;;;;;4900611;29;20029;-72
2023/05/31 06:21:16;;;;;;;7.93;5.40;;;18.00;99.90;;;;;;4900421;29;20060;-71
2023/05/31 06:23:43;;;;;;;10.35;5.93;;;18.20;99.90;;;;;;4900402;29;20020;-72
2023/05/31 06:26:11;;;;;;;13.98;6.38;;;18.00;99.90;;;;;;4900084;29;20115;-75
2023/05/31 06:28:37;;;;;;;10.75;5.90;;;18.10;99.90;;;;;;4900147;29;20036;-72
2023/05/31 06:31:03;;;;;;;8.77;5.25;;;18.10;99.90;;;;;;4900364;29;20492;-76
2023/05/31 06:33:29;;;;;;;9.55;5.45;;;18.10;99.90;;;;;;4917077;29;20071;-72
2023/05/31 06:35:55;;;;;;;12.57;5.88;;;18.10;99.90;;;;;;4900165;29;20032;-71
2023/05/31 06:38:21;;;;;;;11.60;5.93;;;18.10;99.90;;;;;;4899238;29;20392;-72
2023/05/31 06:40:48;;;;;;;9.82;5.07;;;18.10;99.90;;;;;;4899835;29;20040;-72
2023/05/31 06:43:15;;;;;;;10.63;6.00;;;18.00;99.90;;;;;;4899248;29;20032;-73
2023/05/31 06:46:01;;;;;;;9.55;5.40;;;18.20;99.90;;;;;;4915025;29;20032;-73
2023/05/31 06:48:51;;;;;;;11.43;5.80;;;18.30;99.90;;;;;;4877227;29;20045;-72
2023/05/31 06:51:35;;;;;;;8.15;5.07;;;18.30;99.90;;;;;;4877328;29;20075;-72
2023/05/31 06:54:19;;;;;;;8.88;4.35;;;18.20;99.90;;;;;;4877105;29;20121;-73
2023/05/31 06:56:50;;;;;;;8.15;4.72;;;18.30;99.90;;;;;;4861186;29;20123;-71
2023/05/31 06:59:16;;;;;;;9.23;5.85;;;18.20;99.90;;;;;;4861635;29;20029;-74
2023/05/31 07:01:42;;;;;;;8.52;5.15;;;18.20;99.90;;;;;;4861380;29;20041;-72
2023/05/31 07:04:08;;;;;;;9.35;6.28;;;18.20;99.90;;;;;;4861521;29;20107;-72
2023/05/31 07:06:35;;;;;;;8.45;4.45;;;18.40;99.90;;;;;;4876008;29;20109;-74
2023/05/31 07:09:01;;;;;;;7.80;4.22;;;18.40;99.90;;;;;;4876850;29;20076;-72
2023/05/31 07:11:33;;;;;;;8.43;4.60;;;18.60;99.90;;;;;;4876750;29;20062;-72
2023/05/31 07:14:01;;;;;;;8.50;5.65;;;18.60;99.90;;;;;;4876758;29;20064;-72
2023/05/31 07:16:28;;;;;;;11.07;4.95;;;18.80;99.90;;;;;;4861072;29;20025;-73
2023/05/31 07:18:56;;;;;;;11.00;5.07;;;18.80;99.90;;;;;;4876614;29;20089;-71
2023/05/31 07:21:23;;;;;;;7.22;4.78;;;18.80;99.90;;;;;;4876697;29;20029;-73
2023/05/31 07:23:49;;;;;;;8.07;5.07;;;18.80;99.90;;;;;;4876560;29;20033;-72
2023/05/31 07:26:17;;;;;;;10.32;5.78;;;19.10;99.90;;;;;;4891117;29;20036;-74
2023/05/31 07:28:44;;;;;;;8.70;4.63;;;19.10;99.90;;;;;;4916021;29;20020;-71
2023/05/31 07:31:11;;;;;;;7.70;4.45;;;19.20;99.90;;;;;;4916281;29;20106;-72
2023/05/31 07:33:37;;;;;;;9.98;5.15;;;19.20;99.90;;;;;;4916470;29;20135;-73
2023/05/31 07:36:03;;;;;;;9.98;5.00;;;19.30;99.90;;;;;;4898486;29;20544;-72
2023/05/31 07:38:30;;;;;;;7.70;4.55;;;19.30;99.90;;;;;;4915541;29;20054;-75
2023/05/31 07:40:56;;;;;;;11.15;5.00;;;19.60;99.90;;;;;;4915992;29;20044;-73
2023/05/31 07:43:23;;;;;;;9.77;4.82;;;19.70;99.90;;;;;;4915921;29;20027;-71
2023/05/31 07:45:49;;;;;;;9.13;5.22;;;19.90;99.90;;;;;;4915901;29;20476;-74
2023/05/31 07:48:17;;;;;;;10.57;4.93;;;20.10;99.90;;;;;;4915856;29;20028;-72
2023/05/31 07:50:43;;;;;;;8.98;5.15;;;20.10;99.90;;;;;;4915805;29;20122;-71
2023/05/31 07:53:09;;;;;;;9.50;5.13;;;20.40;99.90;;;;;;4916057;29;20452;-71
2023/05/31 07:55:35;;;;;;;7.40;5.07;;;20.50;99.90;;;;;;4915803;29;20144;-72
2023/05/31 07:58:01;;;;;;;8.15;4.93;;;20.60;99.90;;;;;;4915852;29;20024;-72
2023/05/31 08:00:27;;;;;;;9.25;5.07;;;20.60;99.90;;;;;;4915806;29;20024;-72
2023/05/31 08:02:53;;;;;;;10.48;4.45;;;20.70;99.90;;;;;;4915924;29;20028;-71
2023/05/31 08:05:19;;;;;;;10.57;4.85;;;20.50;99.90;;;;;;4915873;29;20511;-71
2023/05/31 08:07:46;;;;;;;11.45;5.35;;;20.30;99.90;;;;;;4915695;29;20032;-71
2023/05/31 08:10:12;;;;;;;11.43;5.28;;;20.20;99.90;;;;;;4915870;29;20048;-71
2023/05/31 08:12:38;;;;;;;11.07;6.30;;;20.20;99.90;;;;;;4898671;29;20024;-71
2023/05/31 08:15:05;;;;;;;10.45;5.68;;;20.10;99.90;;;;;;4915803;29;20058;-74
2023/05/31 08:17:31;;;;;;;9.90;5.43;;;20.20;99.90;;;;;;4915422;29;20051;-73
2023/05/31 08:19:57;;;;;;;10.85;4.95;;;20.20;99.90;;;;;;4915749;29;20428;-72
2023/05/31 08:22:23;;;;;;;9.00;5.43;;;20.20;99.90;;;;;;4915503;29;20032;-72
2023/05/31 08:24:49;;;;;;;10.63;5.97;;;20.10;99.90;;;;;;4915785;29;20024;-72
2023/05/31 08:27:17;;;;;;;10.20;6.00;;;20.10;99.90;;;;;;4915602;29;20028;-72
2023/05/31 08:29:43;;;;;;;9.95;5.43;;;19.90;99.90;;;;;;4915390;29;20051;-72
2023/05/31 08:32:09;;;;;;;13.50;5.32;;;19.90;99.90;;;;;;4915510;29;20084;-71
2023/05/31 08:34:35;;;;;;;10.32;5.93;;;19.90;99.90;;;;;;4915415;29;20473;-71
2023/05/31 08:37:01;;;;;;;9.02;5.53;;;19.90;99.90;;;;;;4915109;29;20040;-73
2023/05/31 08:39:27;;;;;;;9.43;5.50;;;19.70;99.90;;;;;;4915279;29;20028;-73
2023/05/31 08:42:01;;;;;;;8.40;5.50;;;19.60;99.90;;;;;;4915436;29;20047;-72
2023/05/31 08:44:30;;;;;;;10.07;6.03;;;19.60;99.90;;;;;;4915379;29;20488;-71
2023/05/31 08:47:17;;;;;;;8.75;4.78;;;19.50;99.90;;;;;;4915475;29;20028;-71
2023/05/31 08:49:45;;;;;;;8.20;5.43;;;19.60;99.90;;;;;;4915360;29;20050;-73
2023/05/31 08:52:12;;;;;;;8.40;4.88;;;19.50;99.90;;;;;;4902731;29;20104;-72
2023/05/31 08:54:38;;;;;;;8.48;5.53;;;19.60;99.90;;;;;;4915381;29;20063;-72
2023/05/31 08:57:05;;;;;;;8.82;4.95;;;19.50;99.90;;;;;;4902505;29;20032;-71
2023/05/31 08:59:33;;;;;;;10.13;5.70;;;19.50;99.90;;;;;;4915174;29;20040;-71
2023/05/31 09:02:00;;;;;;;10.85;5.07;;;19.40;99.90;;;;;;4915042;29;20036;-71
2023/05/31 09:04:26;;;;;;;9.05;5.70;;;19.40;99.90;;;;;;4915217;29;20040;-72
2023/05/31 09:06:52;;;;;;;7.65;5.10;;;19.50;99.90;;;;;;4918960;29;20024;-72
2023/05/31 09:09:19;;;;;;;10.43;5.22;;;19.60;99.90;;;;;;4918418;29;20047;-72
2023/05/31 09:11:45;;;;;;;8.77;5.28;;;19.70;99.90;;;;;;4918889;29;20035;-72
2023/05/31 09:14:11;;;;;;;9.68;5.10;;;19.60;99.90;;;;;;4918280;29;20036;-72
2023/05/31 09:16:37;;;;;;;11.55;5.72;;;19.70;99.90;;;;;;4918658;29;20017;-73
2023/05/31 09:19:05;;;;;;;9.32;5.65;;;19.90;99.90;;;;;;4918291;29;20032;-72
2023/05/31 09:21:41;;;;;;;10.25;5.38;;;20.00;99.90;;;;;;4918679;29;20017;-71
2023/05/31 09:24:08;;;;;;;7.57;5.40;;;20.10;99.90;;;;;;4918422;29;20032;-72
2023/05/31 09:26:34;;;;;;;9.90;5.53;;;20.20;99.90;;;;;;4918323;29;20043;-71
2023/05/31 09:29:00;;;;;;;9.68;6.13;;;20.30;99.90;;;;;;4918124;29;20074;-71
2023/05/31 09:31:27;;;;;;;9.68;6.05;;;20.30;99.90;;;;;;4918101;29;20021;-72
2023/05/31 09:33:56;;;;;;;9.25;6.25;;;20.30;99.90;;;;;;4918508;29;20092;-74
2023/05/31 09:36:29;;;;;;;10.35;6.38;;;20.60;99.90;;;;;;4918119;29;20037;-71
2023/05/31 09:39:05;;;;;;;13.25;6.63;;;20.60;99.90;;;;;;4899365;29;20051;-73
2023/05/31 09:41:32;;;;;;;11.70;6.82;;;20.60;99.90;;;;;;4899348;29;20498;-72
2023/05/31 09:43:58;;;;;;;11.32;6.40;;;20.70;99.90;;;;;;4898640;29;20484;-73
2023/05/31 09:46:25;;;;;;;11.70;6.85;;;20.70;99.90;;;;;;4899301;29;20040;-75
2023/05/31 09:49:03;;;;;;;12.40;6.47;;;20.90;99.90;;;;;;4898673;29;20056;-76
2023/05/31 09:51:32;;;;;;;11.48;6.05;;;21.00;99.90;;;;;;4899229;29;20033;-71
2023/05/31 09:54:00;;;;;;;10.48;5.88;;;21.30;99.90;;;;;;4898923;29;20021;-73
2023/05/31 09:56:28;;;;;;;8.05;5.75;;;21.30;99.90;;;;;;4881977;29;20663;-71
2023/05/31 09:58:57;;;;;;;10.98;5.03;;;21.60;99.90;;;;;;4882171;29;20020;-71
2023/05/31 10:01:23;;;;;;;11.10;5.68;;;22.10;99.90;;;;;;4898842;29;20384;-71
2023/05/31 10:03:50;;;;;;;9.25;5.55;;;21.90;99.90;;;;;;4899062;29;20021;-73
2023/05/31 10:06:19;;;;;;;10.13;5.82;;;22.20;99.90;;;;;;4898485;29;20104;-72
2023/05/31 10:08:46;;;;;;;8.68;5.07;;;22.20;99.90;;;;;;4898482;29;20500;-71
2023/05/31 10:11:17;;;;;;;10.32;5.80;;;22.20;99.90;;;;;;4898550;29;20044;-73
2023/05/31 10:13:46;;;;;;;10.43;5.93;;;22.20;99.90;;;;;;4898472;29;20080;-72
2023/05/31 10:16:15;;;;;;;11.68;6.00;;;22.20;99.90;;;;;;4897848;29;20067;-74
2023/05/31 10:18:45;;;;;;;8.13;5.45;;;22.50;99.90;;;;;;4898387;29;20040;-74
2023/05/31 10:21:22;;;;;;;7.63;4.72;;;22.40;99.90;;;;;;4898329;29;20057;-73
2023/05/31 10:24:15;;;;;;;9.43;5.10;;;22.60;99.90;;;;;;4898244;29;20397;-71
2023/05/31 10:26:59;;;;;;;8.45;4.80;;;22.30;99.90;;;;;;4898425;29;20037;-71
2023/05/31 10:29:36;;;;;;;8.68;4.85;;;22.50;99.90;;;;;;4898165;29;20385;-73
2023/05/31 10:32:28;;;;;;;8.95;5.50;;;22.30;99.90;;;;;;4898233;29;20495;-71
2023/05/31 10:34:53;;;;;;;10.32;4.75;;;22.40;99.90;;;;;;4898384;29;20047;-73
2023/05/31 10:37:21;;;;;;;7.50;4.65;;;22.60;99.90;;;;;;4904824;29;20040;-74
2023/05/31 10:39:53;;;;;;;11.60;4.80;;;22.50;99.90;;;;;;4917263;29;20075;-72
2023/05/31 10:42:53;;;;;;;7.78;4.57;;;22.60;99.90;;;;;;4916697;29;20064;-71
2023/05/31 10:45:32;;;;;;;6.30;4.28;;;;;;;;;;4916836;29;20032;-74
2023/05/31 10:48:22;;;;;;;7.78;4.93;;;22.60;99.90;;;;;;4916939;29;20031;-72
2023/05/31 10:50:59;;;;;;;8.38;4.25;;;22.80;99.90;;;;;;4916674;29;20055;-73
2023/05/31 10:53:37;;;;;;;7.60;4.57;;;23.10;99.90;;;;;;4916890;29;20039;-72
2023/05/31 10:56:09;;;;;;;7.50;4.40;;;23.10;99.90;;;;;;4916911;29;20048;-71
2023/05/31 10:58:38;;;;;;;7.38;4.78;;;23.00;99.90;;;;;;4916742;29;20036;-73
2023/05/31 11:01:11;;;;;;;11.00;5.28;;;23.00;99.90;;;;;;4916626;29;20099;-74
2023/05/31 11:03:49;;;;;;;7.78;4.78;;;23.00;99.90;;;;;;4916892;29;20480;-72
2023/05/31 11:06:17;;;;;;;6.82;4.63;;;23.20;99.90;;;;;;4916591;29;20548;-74
2023/05/31 11:08:59;;;;;;;6.32;4.20;;;23.30;99.90;;;;;;4916706;29;20028;-70
2023/05/31 11:11:27;;;;;;;;;;;;;;;;;;4917282;29;20083;-72
2023/05/31 11:13:55;;;;;;;7.72;5.03;;;23.90;99.90;;;;;;4916460;29;19955;-72
2023/05/31 11:16:21;;;;;;;7.30;4.53;;;23.70;99.90;;;;;;4916587;29;20024;-75
2023/05/31 11:18:47;;;;;;;9.10;4.55;;;23.70;99.90;;;;;;4916237;29;20032;-73
2023/05/31 11:21:45;;;;;;;8.43;5.13;;;23.60;99.90;;;;;;4916421;29;20019;-74
2023/05/31 11:24:26;;;;;;;7.57;4.85;;;23.50;99.90;;;;;;4916334;29;20494;-71
2023/05/31 11:26:53;;;;;;;7.68;5.00;;;23.20;99.90;;;;;;4916325;29;20472;-72
2023/05/31 11:29:19;;;;;;;9.02;5.32;;;23.30;99.90;;;;;;4915495;29;20490;-72
2023/05/31 11:31:51;;;;;;;9.63;6.10;;;23.20;99.90;;;;;;4916300;29;20035;-75
2023/05/31 11:34:28;;;;;;;11.18;5.88;;;23.50;99.90;;;;;;4916123;29;20043;-75
2023/05/31 11:36:58;;;;;;;9.95;5.57;;;23.60;99.90;;;;;;4916045;29;20391;-73
2023/05/31 11:39:25;;;;;;;13.70;5.35;;;23.50;99.90;;;;;;4915990;29;20087;-73
2023/05/31 11:41:55;;;;;;;8.00;5.20;;;23.40;99.90;;;;;;4915846;29;20023;-75
2023/05/31 11:44:28;;;;;;;9.43;5.63;;;23.50;99.90;;;;;;4916096;29;20040;-74
2023/05/31 11:47:18;;;;;;;10.40;5.70;;;23.60;99.90;;;;;;4915924;29;20032;-71
2023/05/31 11:49:44;;;;;;;11.15;6.05;;;23.40;99.90;;;;;;4904761;29;20460;-72
2023/05/31 11:52:15;;;;;;;12.95;6.55;;;23.10;99.90;;;;;;4915820;29;20099;-75
2023/05/31 11:54:43;;;;;;;10.27;6.15;;;23.30;99.90;;;;;;4915763;29;20488;-73
2023/05/31 11:57:09;;;;;;;7.85;4.82;;;23.40;99.90;;;;;;4915848;29;20119;-73
2023/05/31 11:59:36;;;;;;;10.52;5.53;;;23.40;99.90;;;;;;4915750;29;20451;-75
2023/05/31 12:02:03;;;;;;;10.52;5.55;;;23.40;99.90;;;;;;4915982;29;20036;-73
2023/05/31 12:04:31;;;;;;;11.95;5.97;;;23.30;99.90;;;;;;4915754;29;20024;-75
2023/05/31 12:06:57;;;;;;;11.57;6.43;;;23.30;99.90;;;;;;4915982;29;20472;-73
2023/05/31 12:09:24;;;;;;;11.68;6.00;;;23.50;99.90;;;;;;4915196;29;20036;-72
2023/05/31 12:11:50;;;;;;;7.95;5.30;;;23.60;99.90;;;;;;4915906;29;20062;-73
2023/05/31 12:14:16;;;;;;;8.05;5.28;;;23.60;99.90;;;;;;4915612;29;20028;-77
2023/05/31 12:16:44;;;;;;;7.72;5.18;;;23.20;99.90;;;;;;4915657;29;20059;-73
2023/05/31 12:19:12;;;;;;;9.45;5.53;;;23.20;99.90;;;;;;4915766;29;20021;-74
2023/05/31 12:21:38;;;;;;;9.25;5.85;;;23.10;99.90;;;;;;4915570;29;20028;-75
2023/05/31 12:24:11;;;;;;;9.70;6.30;;;22.90;99.90;;;;;;4915760;29;20489;-76
2023/05/31 12:26:38;;;;;;;9.38;5.45;;;23.80;99.90;;;;;;4915607;29;20032;-72
2023/05/31 12:29:03;;;;;;;9.23;4.75;;;22.90;99.90;;;;;;4915282;29;20039;-72
2023/05/31 12:31:32;;;;;;;11.95;6.07;;;22.90;99.90;;;;;;4915824;29;20358;-72
2023/05/31 12:34:04;;;;;;;9.05;5.75;;;23.20;99.90;;;;;;4898600;29;20396;-71
2023/05/31 12:36:47;;;;;;;7.88;5.05;;;23.10;99.90;;;;;;4915412;29;20028;-75
2023/05/31 12:39:17;;;;;;;13.18;5.93;;;23.20;99.90;;;;;;4915582;29;20039;-74
2023/05/31 12:41:44;;;;;;;11.55;5.55;;;23.10;99.90;;;;;;4919239;29;20032;-73
2023/05/31 12:44:17;;;;;;;8.82;5.32;;;23.20;99.90;;;;;;4919224;29;20040;-75
2023/05/31 12:46:44;;;;;;;9.38;5.05;;;23.40;99.90;;;;;;4919154;29;20491;-75
2023/05/31 12:49:12;;;;;;;8.88;5.10;;;23.50;99.90;;;;;;4919063;29;20111;-71
2023/05/31 12:51:38;;;;;;;10.13;5.68;;;23.50;99.90;;;;;;4918788;29;20130;-72